Date,TemperatureHighF,TemperatureAvgF,TemperatureLowF,DewpointHighF,DewpointAvgF,DewpointLowF,HumidityHigh,HumidityAvg,HumidityLow,PressureMaxIn,PressureMinIn,WindSpeedMaxMPH,WindSpeedAvgMPH,GustSpeedMaxMPH,PrecipitationSumIn
2013-7-1,78.7,69.8,66.1,70.0,65.1,62.0,94,85,67,29.92,29.81,0,0,0,0.00
2013-7-2,79.8,70.9,63.0,68.0,64.1,61.0,94,80,61,30.04,29.91,0,0,0,0.00
2013-7-3,80.0,70.0,61.9,70.0,64.0,60.0,95,82,60,30.10,30.01,0,0,0,0.00
2013-7-4,85.5,73.9,63.9,73.0,67.9,62.0,96,82,58,30.04,29.94,0,0,0,0.00
2013-7-5,84.3,74.4,68.6,73.0,69.3,64.0,95,84,68,30.06,29.94,0,0,0,0.00
2013-7-6,85.3,73.1,65.5,74.0,68.3,62.0,95,85,63,30.06,29.95,0,0,0,0.00
2013-7-7,87.0,77.6,69.5,77.0,72.0,68.0,96,83,64,30.08,30.00,0,0,0,0.00
2013-7-8,85.6,76.3,70.9,79.0,73.8,69.0,96,92,73,30.12,30.04,0,0,0,0.07
2013-7-9,92.1,81.7,72.7,79.0,74.6,71.0,96,80,56,30.11,29.98,0,0,0,0.07
2013-7-10,93.0,82.7,75.8,80.0,75.7,72.0,89,80,59,30.02,29.86,0,0,0,0.02
2013-7-11,90.4,79.9,73.3,80.0,73.1,65.0,96,81,59,29.96,29.89,0,0,0,0.03
2013-7-12,85.6,74.4,64.7,70.0,64.2,60.0,88,71,54,30.02,29.94,0,0,0,0.00
2013-7-13,85.1,73.4,62.2,66.0,62.9,59.0,94,72,50,30.03,29.94,0,0,0,0.00
2013-7-14,86.9,75.1,66.5,75.0,69.0,63.0,93,82,62,30.07,29.96,0,0,0,0.00
2013-7-15,88.1,77.3,72.0,77.0,73.3,70.0,95,88,65,30.18,30.07,0,0,0,0.01
2013-7-16,91.4,80.3,71.7,76.0,73.1,70.0,96,80,58,30.25,30.17,0,0,0,0.01
2013-7-17,93.3,80.7,71.1,78.0,73.7,69.0,96,80,56,30.29,30.14,0,0,0,0.00
2013-7-18,93.1,78.7,71.6,80.0,74.2,70.0,95,87,59,30.18,30.01,0,0,0,0.89
2013-7-19,87.1,77.7,71.1,77.0,73.2,70.0,96,86,65,30.07,29.92,0,0,0,0.89
2013-7-20,90.2,80.0,71.9,78.0,74.2,70.0,96,83,64,29.96,29.82,0,0,0,0.00
2013-7-21,90.4,80.3,72.8,79.0,74.2,70.0,95,82,60,29.95,29.86,0,0,0,0.00
2013-7-22,84.6,77.7,71.8,79.0,74.0,69.0,96,88,76,29.93,29.84,0,0,0,0.01
2013-7-23,86.5,77.3,70.2,80.0,73.9,69.0,96,89,68,30.01,29.81,0,0,0,0.21
2013-7-24,81.1,76.1,72.0,76.0,73.5,69.0,95,91,79,29.96,29.84,0,0,0,0.11
2013-7-25,80.0,71.5,64.8,69.0,65.4,62.0,93,82,60,30.07,29.95,0,0,0,0.11
2013-7-26,80.1,70.1,61.7,71.0,66.5,60.0,96,88,65,30.06,29.94,0,0,0,0.00
2013-7-27,83.4,75.2,70.2,72.0,69.8,68.0,95,84,64,30.00,29.88,0,0,0,0.00
2013-7-28,79.1,70.3,65.2,67.0,64.4,61.0,89,82,61,30.06,29.94,0,0,0,0.00
2013-7-29,84.2,73.8,65.8,73.0,67.2,64.0,93,80,64,30.15,30.05,0,0,0,0.00
2013-7-30,78.1,74.4,70.4,77.0,71.7,67.0,95,91,85,30.12,30.00,0,0,0,0.03
2013-7-31,87.0,77.4,73.6,81.0,74.7,72.0,96,91,79,30.03,29.91,0,0,0,0.01